Latest Weather Observations for Hopetoun Airport

IDV60801

Issued at 12:35 pm EST Sunday 20 April 2014 (issued every 30 minutes, with the page automatically refreshed every 10 minutes)

About weather observations | Map of weather stations | Latest weather observations for VIC | Other Formats
Station Details ID: 077010 Name: HOPETOUN AIRPORT Lat: -35.72 Lon: 142.36 Height: 77.3 m
Data from the previous 72 hours. | See also: Recent months at Hopetoun Airport
Date/Time
EST
Temp
°C
App
Temp
°C
Dew
Point
Rel
Hum
%
Delta-T
°C
Wind Press
QNH
hPa
Press
MSL
hPa
Rain
since 9 am
mm
Dir
 
Spd
km/h
Gust
km/h
Spd
kts
Gust
kts
20/12:30pm 18.4 14.2 3.8 38 6.9 W 15 24 8 13 1018.5 - 0.0
20/12:00pm 17.7 14.1 3.2 38 6.7 NW 11 20 6 11 1019.0 1018.9 0.0
20/11:30am 17.5 13.5 3.0 38 6.7 WNW 13 20 7 11 1019.4 - 0.0
20/11:00am 17.2 14.3 4.9 44 5.9 NW 9 17 5 9 1019.6 1019.5 0.0
20/10:30am 16.1 13.2 4.8 47 5.4 N 9 13 5 7 1019.7 - 0.0
20/10:00am 14.6 11.4 5.1 53 4.5 N 11 15 6 8 1019.7 1019.6 0.0
20/09:30am 13.0 10.9 5.9 62 3.4 N 6 9 3 5 1019.7 - 0.0
20/09:00am 11.3 9.3 6.2 71 2.4 NNW 6 7 3 4 1019.7 1019.6 0.0
20/08:30am 9.9 7.7 6.3 78 1.7 N 7 9 4 5 1019.5 - 0.0
20/08:00am 9.1 7.4 5.7 79 1.5 NNE 4 7 2 4 1019.2 1019.1 0.0
20/07:30am 8.3 5.9 5.4 82 1.3 NE 7 9 4 5 1018.8 - 0.0
20/07:00am 7.1 4.7 5.1 87 0.9 NE 7 9 4 5 1018.6 1018.5 0.0
20/06:30am 6.4 4.5 4.7 89 0.7 ENE 4 7 2 4 1018.4 - 0.0
20/06:00am 5.4 4.0 3.7 89 0.7 CALM 0 0 0 0 1018.3 1018.2 0.0
20/05:30am 4.8 3.3 3.0 88 0.7 CALM 0 0 0 0 1018.2 - 0.0
20/05:00am 4.8 3.3 2.8 87 0.8 CALM 0 0 0 0 1018.0 1017.9 0.0
20/04:30am 4.9 3.4 2.9 87 0.8 CALM 0 0 0 0 1018.0 - 0.0
20/04:00am 5.3 3.8 3.2 86 0.9 CALM 0 0 0 0 1018.0 1017.9 0.0
20/03:30am 5.4 3.9 2.9 84 1.0 CALM 0 0 0 0 1018.1 - 0.0
20/03:00am 5.7 4.2 2.9 82 1.2 SE 0 0 0 0 1017.9 1017.8 0.0
20/02:30am 6.3 4.9 3.3 81 1.3 CALM 0 0 0 0 1018.1 - 0.0
20/02:00am 6.7 5.3 3.5 80 1.4 CALM 0 0 0 0 1018.3 1018.2 0.0
20/01:30am 6.3 4.5 3.3 81 1.3 N 2 2 1 1 1018.4 - 0.0
20/01:00am 6.2 3.9 3.0 80 1.3 N 4 4 2 2 1018.2 1018.1 0.0
20/12:30am 6.5 5.0 2.9 78 1.5 CALM 0 0 0 0 1018.5 - 0.0
20/12:00am 7.8 5.7 3.8 76 1.7 SE 4 7 2 4 1018.6 1018.5 0.0
 
Date/Time
EST
Temp
°C
App
Temp
°C
Dew
Point
Rel
Hum
%
Delta-T
°C
Wind Press
QNH
hPa
Press
MSL
hPa
Rain
since 9 am
mm
Dir
 
Spd
km/h
Gust
km/h
Spd
kts
Gust
kts
19/11:30pm 7.8 5.0 3.3 73 1.9 ENE 7 7 4 4 1018.4 - 0.0
19/11:00pm 8.3 5.6 3.8 73 1.9 ESE 7 7 4 4 1018.7 1018.6 0.0
19/10:30pm 8.3 5.5 3.4 71 2.1 E 7 9 4 5 1018.9 - 0.0
19/10:00pm 8.8 6.1 3.6 70 2.2 E 7 9 4 5 1018.9 1018.8 0.0
19/09:30pm 9.7 6.6 3.7 66 2.6 ESE 9 11 5 6 1019.2 - 0.0
19/09:00pm 10.5 7.9 4.0 64 2.9 ESE 7 9 4 5 1019.1 1019.0 0.0
19/08:30pm 10.2 7.2 4.1 66 2.7 ESE 9 11 5 6 1019.1 - 0.0
19/08:00pm 10.2 7.4 3.3 62 3.0 ESE 7 9 4 5 1019.2 1019.1 0.0
19/07:30pm 12.2 9.2 4.2 58 3.6 SSE 9 11 5 6 1019.1 - 0.0
19/07:00pm 13.4 10.4 4.0 53 4.3 SSE 9 11 5 6 1019.1 1019.0 0.0
19/06:30pm 14.6 11.9 3.7 48 5.0 S 7 9 4 5 1019.0 - 0.0
19/06:00pm 14.8 12.3 3.6 47 5.1 SW 6 7 3 4 1018.8 1018.7 0.0
19/05:30pm 16.8 14.0 3.1 40 6.3 WSW 7 9 4 5 1018.6 - 0.0
19/05:00pm 17.3 14.4 2.5 37 6.7 S 7 11 4 6 1018.7 1018.6 0.0
19/04:30pm 17.6 13.9 2.4 36 6.9 SW 11 17 6 9 1018.9 - 0.0
19/04:00pm 18.2 15.5 2.9 36 7.1 WSW 6 11 3 6 1019.1 1019.0 0.0
19/03:30pm 17.8 14.1 2.5 36 7.0 SW 11 17 6 9 1019.2 - 0.0
19/03:00pm 17.3 13.9 2.1 36 6.9 S 9 15 5 8 1019.3 1019.2 0.0
19/02:30pm 17.1 13.5 2.7 38 6.6 S 11 17 6 9 1019.5 - 0.0
19/02:00pm 17.1 13.8 2.7 38 6.6 S 9 19 5 10 1019.9 1019.8 0.0
19/01:30pm 16.7 12.4 3.1 40 6.2 SW 15 24 8 13 1020.3 - 0.0
19/01:00pm 17.2 14.6 4.2 42 6.1 S 7 19 4 10 1020.7 1020.6 0.0
19/12:30pm 16.3 13.7 4.0 44 5.7 S 7 13 4 7 1021.5 - 0.0
19/12:00pm 15.8 12.3 3.3 43 5.7 SSW 11 19 6 10 1022.0 1021.9 0.0
19/11:30am 15.9 12.4 3.7 44 5.6 SW 11 19 6 10 1022.2 - 0.0
19/11:00am 15.0 12.3 3.8 47 5.1 S 7 13 4 7 1022.6 1022.5 0.0
19/10:30am 14.4 11.3 3.5 48 5.0 S 9 15 5 8 1022.7 - 0.0
19/10:00am 14.2 11.3 6.3 59 3.8 SSW 11 19 6 10 1022.9 1022.8 0.0
19/09:30am 12.7 10.0 7.2 69 2.7 SSW 11 15 6 8 1022.9 - 0.0
19/09:00am 10.9 9.0 6.8 76 1.9 SSW 6 9 3 5 1023.0 1022.9 0.0
19/08:30am 9.1 7.3 7.2 88 0.9 WSW 6 7 3 4 1022.7 - 0.0
19/08:00am 6.5 4.7 5.3 92 0.5 W 4 4 2 2 1022.6 1022.5 0.0
19/07:30am 4.6 2.0 3.4 92 0.5 SW 6 6 3 3 1022.4 - 0.0
19/07:00am 3.8 1.9 2.6 92 0.5 SSW 2 4 1 2 1022.3 1022.2 0.0
19/06:30am 2.9 1.1 1.4 90 0.6 CALM 0 4 0 2 1022.1 - 0.0
19/06:00am 4.2 1.5 2.7 90 0.6 WSW 6 7 3 4 1021.9 1021.8 0.0
19/05:30am 5.4 3.0 4.1 91 0.6 SSW 6 6 3 3 1021.8 - 0.0
19/05:00am 4.1 1.8 2.5 89 0.6 SW 4 4 2 2 1021.6 1021.5 0.0
19/04:30am 4.9 2.3 3.1 88 0.7 SW 6 7 3 4 1021.3 - 0.0
19/04:00am 5.9 2.9 3.9 87 0.8 SW 9 11 5 6 1021.3 1021.2 0.0
19/03:30am 5.8 3.0 3.3 84 1.0 SSW 7 9 4 5 1021.3 - 0.0
19/03:00am 6.9 4.0 4.6 85 1.0 SSW 9 11 5 6 1021.3 1021.2 0.0
19/02:30am 6.5 3.9 4.2 85 1.0 SSW 7 7 4 4 1021.6 - 0.0
19/02:00am 6.9 3.9 4.0 82 1.2 SSW 9 9 5 5 1021.8 1021.7 0.0
19/01:30am 8.6 5.7 4.6 76 1.8 S 9 13 5 7 1021.9 - 0.0
19/01:00am 9.0 6.1 4.6 74 1.9 S 9 11 5 6 1021.9 1021.8 0.0
19/12:30am 9.3 6.4 4.5 72 2.1 S 9 13 5 7 1022.0 - 0.0
19/12:00am 9.8 6.1 4.4 69 2.4 S 13 17 7 9 1021.9 1021.8 0.0
 
Date/Time
EST
Temp
°C
App
Temp
°C
Dew
Point
Rel
Hum
%
Delta-T
°C
Wind Press
QNH
hPa
Press
MSL
hPa
Rain
since 9 am
mm
Dir
 
Spd
km/h
Gust
km/h
Spd
kts
Gust
kts
18/11:30pm 10.0 6.7 4.4 68 2.5 S 11 15 6 8 1021.9 - 0.0
18/11:00pm 10.4 7.4 4.3 66 2.7 S 9 15 5 8 1022.0 1021.9 0.0
18/10:30pm 11.4 8.1 4.6 63 3.1 S 11 17 6 9 1022.0 - 0.0
18/10:00pm 11.8 8.5 4.8 62 3.2 S 11 17 6 9 1021.9 1021.8 0.0
18/09:30pm 11.3 8.4 4.5 63 3.1 SSW 9 13 5 7 1021.7 - 0.0
18/09:00pm 12.6 9.3 4.3 57 3.8 S 11 15 6 8 1021.4 1021.3 0.0
18/08:30pm 13.4 9.6 4.0 53 4.3 S 13 17 7 9 1021.2 - 0.0
18/08:00pm 11.8 8.6 3.3 56 3.7 SSW 9 11 5 6 1021.0 1020.9 0.0
18/07:30pm 14.2 11.0 3.1 47 5.0 S 9 13 5 7 1020.7 - 0.0
18/07:00pm 15.4 11.8 2.9 43 5.6 S 11 15 6 8 1020.4 1020.3 0.0
18/06:30pm 16.7 12.4 3.1 40 6.2 S 15 20 8 11 1020.2 - 0.0
18/06:00pm 17.6 12.8 2.8 37 6.8 S 17 30 9 16 1019.7 1019.6 0.0
18/05:30pm 18.6 13.0 3.3 36 7.2 SSW 22 39 12 21 1019.3 - 0.0
18/05:00pm 19.3 13.2 2.6 33 7.7 SSW 24 39 13 21 1019.1 1019.0 0.0
18/04:30pm 19.1 12.0 3.3 35 7.4 SW 30 39 16 21 1018.8 - 0.0
18/04:00pm 20.3 14.1 4.4 35 7.7 SSW 26 39 14 21 1018.6 1018.5 0.0
18/03:30pm 20.3 14.1 4.4 35 7.7 SSW 26 39 14 21 1018.4 - 0.0
18/03:00pm 20.8 14.8 5.2 36 7.7 SSW 26 37 14 20 1018.3 1018.2 0.0
18/02:30pm 20.4 14.6 6.4 40 7.1 SSW 26 39 14 21 1018.2 - 0.0
18/02:00pm 20.0 14.2 8.0 46 6.2 SW 28 37 15 20 1018.1 1018.0 0.0
18/01:30pm 19.7 14.5 9.0 50 5.6 SW 26 39 14 21 1018.0 - 0.0
18/01:00pm 18.8 14.1 10.6 59 4.4 SSW 26 39 14 21 1018.3 1018.2 0.0
18/12:30pm 19.2 14.7 11.3 60 4.3 SSW 26 37 14 20 1018.5 - 0.0
18/12:00pm 18.6 13.2 12.1 66 3.6 SW 32 39 17 21 1018.8 1018.7 0.0
18/11:30am 19.6 14.9 13.1 66 3.7 WSW 30 41 16 22 1018.5 - 0.0
18/11:01am 20.4 15.7 13.1 63 4.2 WSW 30 52 16 28 1018.4 - 0.0
18/11:00am 21.0 16.3 13.2 61 4.5 WSW 30 44 16 24 1018.4 1018.3 0.0
18/10:30am 19.4 15.0 12.9 66 3.7 WSW 28 37 15 20 1018.6 - 0.0
18/10:00am 18.8 14.0 13.0 69 3.3 WSW 30 39 16 21 1018.7 1018.6 0.0
18/09:30am 18.0 13.7 13.3 74 2.7 WSW 28 37 15 20 1018.8 - 0.0
18/09:00am 16.6 12.6 12.9 79 2.1 W 26 32 14 17 1018.4 1018.3 0.0
18/08:30am 14.3 12.7 11.5 83 1.5 WNW 11 17 6 9 1018.5 - 0.0
18/08:00am 11.9 11.0 10.5 91 0.7 NW 6 9 3 5 1018.3 1018.2 0.0
18/07:30am 9.6 8.1 8.4 92 0.6 NNW 6 7 3 4 1018.1 - 0.0
18/07:00am 8.6 6.3 7.4 92 0.6 NNW 9 9 5 5 1017.7 1017.6 0.0
18/06:30am 8.6 6.8 7.2 91 0.7 N 6 6 3 3 1017.7 - 0.0
18/06:00am 8.6 6.8 7.1 90 0.7 N 6 6 3 3 1017.7 1017.6 0.0
18/05:30am 9.6 8.8 8.0 90 0.8 N 2 4 1 2 1017.7 - 0.0
18/05:00am 9.5 7.9 7.9 90 0.8 WNW 6 7 3 4 1017.7 1017.6 0.0
18/04:30am 10.0 8.9 8.4 90 0.8 NW 4 6 2 3 1017.7 - 0.0
18/04:00am 9.2 7.8 7.3 88 0.9 WNW 4 6 2 3 1017.6 1017.5 0.0
18/03:30am 9.7 8.1 7.8 88 0.9 WNW 6 6 3 3 1017.7 - 0.0
18/03:00am 10.1 8.5 8.0 87 1.0 N 6 6 3 3 1017.6 1017.5 0.0
18/02:30am 9.6 8.3 7.5 87 1.0 N 4 4 2 2 1017.7 - 0.0
18/02:00am 10.0 9.1 7.8 86 1.1 N 2 6 1 3 1018.0 1017.9 0.0
18/01:30am 10.8 10.1 8.6 86 1.1 WNW 2 4 1 2 1018.1 - 0.0
18/01:00am 11.0 10.5 7.9 81 1.5 CALM 0 0 0 0 1018.1 1018.0 0.0
18/12:30am 12.5 12.3 9.1 80 1.7 CALM 0 0 0 0 1018.6 - 0.0
18/12:00am 12.8 12.2 9.1 78 1.9 SW 2 2 1 1 1018.9 1018.8 0.0
 
Date/Time
EST
Temp
°C
App
Temp
°C
Dew
Point
Rel
Hum
%
Delta-T
°C
Wind Press
QNH
hPa
Press
MSL
hPa
Rain
since 9 am
mm
Dir
 
Spd
km/h
Gust
km/h
Spd
kts
Gust
kts
17/11:30pm 12.7 12.1 9.0 78 1.9 SW 2 4 1 2 1019.3 - 0.0
17/11:00pm 15.2 14.2 10.2 72 2.6 SW 6 9 3 5 1019.5 1019.4 0.0
17/10:30pm 13.3 11.8 9.2 76 2.1 SW 7 7 4 4 1019.8 - 0.0
17/10:00pm 14.7 13.1 8.9 68 3.0 S 7 9 4 5 1019.8 1019.7 0.0
17/09:30pm 13.8 11.6 9.5 75 2.2 W 11 15 6 8 1019.9 - 0.0
17/09:00pm 13.6 11.2 8.7 72 2.5 NW 11 13 6 7 1019.6 1019.5 0.0
17/08:30pm 13.8 11.7 8.2 69 2.8 NW 9 11 5 6 1019.6 - 0.0
17/08:00pm 14.5 12.4 8.2 66 3.2 NW 9 9 5 5 1019.5 1019.4 0.0
17/07:30pm 15.3 13.3 8.5 64 3.5 NW 9 11 5 6 1019.3 - 0.0
17/07:00pm 16.8 14.7 8.2 57 4.4 W 9 11 5 6 1019.0 1018.9 0.0
17/06:30pm 18.0 15.5 8.3 53 5.0 W 11 13 6 7 1018.9 - 0.0
17/06:00pm 20.0 17.1 8.0 46 6.2 W 13 15 7 8 1018.6 1018.5 0.0
17/05:30pm 22.5 19.5 7.5 38 7.8 WNW 13 17 7 9 1018.5 - 0.0
17/05:00pm 23.3 19.3 6.6 34 8.6 WNW 17 22 9 12 1018.5 1018.4 0.0
17/04:30pm 24.1 20.8 6.4 32 9.1 WNW 13 22 7 12 1018.5 - 0.0
17/04:00pm 24.2 21.3 6.5 32 9.1 W 11 19 6 10 1018.5 1018.4 0.0
17/03:30pm 24.2 21.1 5.5 30 9.5 WNW 11 15 6 8 1018.7 - 0.0
17/03:00pm 24.3 21.6 5.6 30 9.5 W 9 24 5 13 1018.9 1018.8 0.0
17/02:30pm 24.0 21.0 5.8 31 9.3 WNW 11 22 6 12 1019.2 - 0.0
17/02:00pm 23.7 20.3 6.0 32 9.0 W 13 15 7 8 1019.3 1019.2 0.0
17/01:30pm 23.4 20.5 6.7 34 8.6 W 11 17 6 9 1019.6 - 0.0
17/01:00pm 23.6 21.7 7.7 36 8.4 NW 7 13 4 7 1020.1 1020.0 0.0

Other Formats:

Comma delimited format used in spreadsheet applications
http://www.bom.gov.au/fwo/IDV60801/IDV60801.94838.axf

JavaScript Object Notation format (JSON) in row-major order
http://www.bom.gov.au/fwo/IDV60801/IDV60801.94838.json